Time;durP1;ratioP1;P1;durP2;ratioP2;P2;SDS_P1;SDS_P2;PMS_P1;PMS_P2;Temp;Humidity;BMP_temperature;BMP_pressure;BME280_temperature;BME280_humidity;BME280_pressure;Samples;Min_cycle;Max_cycle;Signal;HPM_P1;HPM_P2
2021/12/13 00:01:40;;;;;;;12.93;5.68;;;4.30;99.90;;;;;;5012075;28;20034;-67
2021/12/13 00:04:12;;;;;;;17.35;6.13;;;4.20;99.90;;;;;;5010044;28;20026;-64
2021/12/13 00:06:43;;;;;;;14.23;5.63;;;4.20;99.90;;;;;;5010119;28;20482;-64
2021/12/13 00:09:17;;;;;;;12.57;5.53;;;4.20;99.90;;;;;;4992148;28;20065;-65
2021/12/13 00:11:47;;;;;;;15.82;5.72;;;4.20;99.90;;;;;;5008217;28;20505;-66
2021/12/13 00:14:20;;;;;;;11.93;5.93;;;4.20;99.90;;;;;;5009465;28;20054;-65
2021/12/13 00:17:07;;;;;;;15.85;6.32;;;4.20;99.90;;;;;;5011027;28;20026;-64
2021/12/13 00:19:47;;;;;;;14.52;6.63;;;4.20;99.90;;;;;;5005510;28;20048;-65
2021/12/13 00:22:22;;;;;;;15.63;6.90;;;4.20;99.90;;;;;;5008986;28;20372;-64
2021/12/13 00:24:50;;;;;;;16.40;7.45;;;4.20;99.90;;;;;;5023663;28;20084;-65
2021/12/13 00:27:22;;;;;;;15.65;7.30;;;4.20;99.90;;;;;;5008218;28;20054;-64
2021/12/13 00:29:59;;;;;;;18.52;7.63;;;4.20;99.90;;;;;;5010796;28;20034;-66
2021/12/13 00:32:46;;;;;;;15.70;7.95;;;4.20;99.90;;;;;;5008412;28;20091;-64
2021/12/13 00:35:19;;;;;;;20.42;8.65;;;4.30;99.90;;;;;;5017034;28;20030;-63
2021/12/13 00:37:49;;;;;;;18.13;8.02;;;4.30;99.90;;;;;;5009177;28;20022;-64
2021/12/13 00:40:22;;;;;;;22.65;8.38;;;4.20;99.90;;;;;;5010380;28;20112;-63
2021/12/13 00:43:07;;;;;;;23.02;8.98;;;4.20;99.90;;;;;;5008304;28;20041;-64
2021/12/13 00:45:37;;;;;;;17.40;8.15;;;4.20;99.90;;;;;;5021905;28;20033;-65
2021/12/13 00:48:04;;;;;;;19.58;8.60;;;4.20;99.90;;;;;;5010068;28;20775;-69
2021/12/13 00:50:33;;;;;;;25.58;9.60;;;4.30;99.90;;;;;;5009451;28;20486;-65
2021/12/13 00:52:59;;;;;;;20.27;8.93;;;4.20;99.90;;;;;;5008868;28;20479;-63
2021/12/13 00:55:29;;;;;;;26.50;8.45;;;4.20;99.90;;;;;;5012648;28;20038;-67
2021/12/13 00:58:03;;;;;;;20.90;8.98;;;4.20;99.90;;;;;;5010441;28;20141;-63
2021/12/13 01:00:45;;;;;;;22.65;9.48;;;4.30;99.90;;;;;;5008080;28;20490;-64
2021/12/13 01:03:18;;;;;;;27.23;9.82;;;4.20;99.90;;;;;;5007283;28;20022;-64
2021/12/13 01:06:44;;;;;;;28.05;9.57;;;4.20;99.90;;;;;;4997325;28;20029;-64
2021/12/13 01:09:22;;;;;;;25.65;9.50;;;4.20;99.90;;;;;;5009595;28;20114;-64
2021/12/13 01:11:58;;;;;;;24.23;9.13;;;4.20;99.90;;;;;;5014405;28;20037;-65
2021/12/13 01:14:34;;;;;;;28.30;10.15;;;4.20;99.90;;;;;;5009316;28;20625;-64
2021/12/13 01:17:19;;;;;;;25.00;10.30;;;4.20;99.90;;;;;;5010059;28;20053;-64
2021/12/13 01:20:11;;;;;;;27.92;9.73;;;4.20;99.90;;;;;;5005820;28;20026;-64
2021/12/13 01:22:45;;;;;;;24.88;10.23;;;4.20;99.90;;;;;;5008979;28;20030;-63
2021/12/13 01:25:47;;;;;;;26.58;10.65;;;4.20;99.90;;;;;;5008963;28;20034;-64
2021/12/13 01:28:26;;;;;;;22.48;9.75;;;4.20;99.90;;;;;;4999551;28;20044;-64
2021/12/13 01:31:04;;;;;;;27.08;10.35;;;4.20;99.90;;;;;;5009253;28;20026;-63
2021/12/13 01:33:31;;;;;;;22.33;9.38;;;4.20;99.90;;;;;;5028796;28;20044;-63
2021/12/13 01:36:00;;;;;;;24.58;9.68;;;4.20;99.90;;;;;;5029720;28;20060;-64
2021/12/13 01:38:40;;;;;;;27.67;10.75;;;4.20;99.90;;;;;;5028967;28;20022;-63
2021/12/13 01:41:13;;;;;;;24.13;9.35;;;4.20;99.90;;;;;;5008680;28;20160;-69
2021/12/13 01:43:43;;;;;;;24.90;10.77;;;4.20;99.90;;;;;;4999401;28;20045;-66
2021/12/13 01:46:10;;;;;;;28.85;10.80;;;4.20;99.90;;;;;;5008886;28;20064;-63
2021/12/13 01:48:39;;;;;;;30.65;10.63;;;4.20;99.90;;;;;;5009410;28;20048;-64
2021/12/13 01:51:11;;;;;;;26.77;9.93;;;4.30;99.90;;;;;;5009075;28;20036;-70
2021/12/13 01:53:53;;;;;;;28.02;11.13;;;4.30;99.90;;;;;;5023895;28;20038;-63
2021/12/13 02:02:09;;;;;;;27.67;11.00;;;4.40;99.90;;;;;;5012307;28;20048;-63
2021/12/13 02:04:36;;;;;;;29.30;9.93;;;4.40;99.90;;;;;;5029270;28;20166;-66
2021/12/13 02:07:03;;;;;;;34.45;11.00;;;4.40;99.90;;;;;;5016744;28;20025;-64
2021/12/13 02:09:40;;;;;;;29.83;10.18;;;4.40;99.90;;;;;;5007634;28;20784;-63
2021/12/13 02:12:13;;;;;;;27.98;10.43;;;4.30;99.90;;;;;;5009849;28;20038;-70
2021/12/13 02:14:47;;;;;;;31.60;10.95;;;4.40;99.90;;;;;;5007839;28;20394;-63
2021/12/13 02:17:18;;;;;;;30.10;10.90;;;4.40;99.90;;;;;;5008224;28;20040;-64
2021/12/13 02:19:49;;;;;;;;;;;4.40;99.90;;;;;;5011496;28;20555;-65
2021/12/13 02:22:26;;;;;;;29.98;10.35;;;4.40;99.90;;;;;;5008025;28;19913;-65
2021/12/13 02:24:55;;;;;;;31.65;10.45;;;4.40;99.90;;;;;;5008459;28;20041;-63
2021/12/13 02:27:29;;;;;;;28.50;10.90;;;4.40;99.90;;;;;;5006905;28;20065;-63
2021/12/13 02:29:57;;;;;;;29.63;10.30;;;4.40;99.90;;;;;;5009573;28;20041;-63
2021/12/13 02:32:28;;;;;;;27.48;10.65;;;4.30;99.90;;;;;;5007475;28;20487;-66
2021/12/13 02:34:57;;;;;;;29.05;10.52;;;4.30;99.90;;;;;;5009239;28;20045;-63
2021/12/13 02:37:26;;;;;;;30.65;11.13;;;4.30;99.90;;;;;;5005779;28;20096;-64
2021/12/13 02:39:56;;;;;;;30.52;11.18;;;4.30;99.90;;;;;;5014491;28;20029;-63
2021/12/13 02:42:23;;;;;;;29.08;11.20;;;4.30;99.90;;;;;;5012440;28;20042;-63
2021/12/13 02:44:57;;;;;;;26.20;11.20;;;4.30;99.90;;;;;;5007153;28;20034;-65
2021/12/13 02:47:42;;;;;;;27.35;10.68;;;4.30;99.90;;;;;;5007914;28;20041;-63
2021/12/13 02:50:14;;;;;;;26.95;10.50;;;4.30;99.90;;;;;;5014982;28;20029;-69
2021/12/13 02:52:41;;;;;;;31.70;12.02;;;4.30;99.90;;;;;;5008181;28;20058;-63
2021/12/13 02:55:17;;;;;;;32.08;11.80;;;4.40;99.90;;;;;;5008423;28;20037;-64
2021/12/13 02:57:47;;;;;;;30.48;11.52;;;4.30;99.90;;;;;;5008250;28;20076;-64
2021/12/13 03:00:16;;;;;;;28.30;11.93;;;4.30;99.90;;;;;;5008036;28;20442;-66
2021/12/13 03:02:45;;;;;;;37.55;12.70;;;4.30;99.90;;;;;;5007892;28;20038;-63
2021/12/13 03:05:22;;;;;;;34.83;12.07;;;4.40;99.90;;;;;;5007930;28;20018;-69
2021/12/13 03:07:53;;;;;;;33.03;12.95;;;4.40;99.90;;;;;;5006144;28;20030;-63
2021/12/13 03:10:27;;;;;;;30.73;11.15;;;4.30;99.90;;;;;;5008830;28;20038;-64
2021/12/13 03:12:52;;;;;;;38.60;13.65;;;4.40;99.90;;;;;;5007645;28;20022;-63
2021/12/13 03:15:22;;;;;;;35.72;11.80;;;4.40;99.90;;;;;;5007605;28;20048;-65
2021/12/13 03:17:57;;;;;;;32.53;12.05;;;4.30;99.90;;;;;;5008161;28;20501;-63
2021/12/13 03:20:23;;;;;;;39.00;12.63;;;4.40;99.90;;;;;;5006229;28;20034;-63
2021/12/13 03:23:07;;;;;;;36.17;12.55;;;4.30;99.90;;;;;;5007506;28;20033;-64
2021/12/13 03:25:38;;;;;;;37.33;13.02;;;4.40;99.90;;;;;;5008158;28;20057;-65
2021/12/13 03:28:29;;;;;;;36.60;13.70;;;4.30;99.90;;;;;;5012048;28;20438;-66
2021/12/13 03:31:07;;;;;;;42.15;13.07;;;4.30;99.90;;;;;;5011121;28;20156;-66
2021/12/13 03:33:53;;;;;;;45.58;13.85;;;4.40;99.90;;;;;;5011363;28;20026;-65
2021/12/13 03:36:37;;;;;;;42.05;14.82;;;4.40;99.90;;;;;;5009753;28;20072;-63
2021/12/13 03:39:07;;;;;;;39.92;13.85;;;4.40;99.90;;;;;;5011997;28;20041;-64
2021/12/13 03:41:38;;;;;;;42.38;13.65;;;4.40;99.90;;;;;;5011129;28;20367;-63
2021/12/13 03:44:11;;;;;;;56.50;13.63;;;4.40;99.90;;;;;;4994632;28;20121;-63
2021/12/13 03:46:38;;;;;;;41.97;13.63;;;4.40;99.90;;;;;;5011648;28;20133;-62
2021/12/13 03:49:06;;;;;;;46.97;14.63;;;4.40;99.90;;;;;;5013467;28;20036;-63
2021/12/13 03:51:38;;;;;;;51.58;15.30;;;4.40;99.90;;;;;;5016883;28;20125;-63
2021/12/13 03:54:06;;;;;;;38.75;12.90;;;4.40;99.90;;;;;;5004933;28;20462;-64
2021/12/13 03:56:37;;;;;;;35.38;13.63;;;4.40;99.90;;;;;;5015152;28;20791;-66
2021/12/13 03:59:09;;;;;;;42.85;13.40;;;4.40;99.90;;;;;;4995618;28;20465;-65
2021/12/13 04:01:45;;;;;;;34.35;12.10;;;4.50;99.90;;;;;;5004256;28;20057;-64
2021/12/13 04:04:18;;;;;;;36.25;12.30;;;4.40;99.90;;;;;;5009833;28;20065;-64
2021/12/13 04:06:55;;;;;;;28.90;10.43;;;4.50;99.90;;;;;;5011351;28;20030;-64
2021/12/13 04:09:24;;;;;;;32.83;11.73;;;4.50;99.90;;;;;;5018552;28;20102;-65
2021/12/13 04:11:55;;;;;;;30.15;10.65;;;4.50;99.90;;;;;;4996548;28;20735;-64
2021/12/13 04:14:27;;;;;;;31.88;10.63;;;4.50;99.90;;;;;;5010033;28;20041;-63
2021/12/13 04:17:37;;;;;;;29.02;10.52;;;4.50;99.90;;;;;;5014351;28;20793;-63
2021/12/13 04:20:11;;;;;;;27.55;10.00;;;4.50;99.90;;;;;;5002217;28;20018;-63
2021/12/13 04:22:40;;;;;;;30.45;10.88;;;4.50;99.90;;;;;;5010775;28;20660;-63
2021/12/13 04:25:17;;;;;;;28.48;10.30;;;4.50;99.90;;;;;;5010554;28;20057;-65
2021/12/13 04:27:56;;;;;;;33.47;10.77;;;4.50;99.90;;;;;;5009158;28;20045;-63
2021/12/13 04:30:33;;;;;;;28.80;10.30;;;4.50;99.90;;;;;;5000931;28;20385;-63
2021/12/13 04:33:18;;;;;;;26.75;9.02;;;4.50;99.90;;;;;;5010595;28;20036;-63
2021/12/13 04:35:50;;;;;;;107.88;13.82;;;4.60;99.90;;;;;;4999427;28;20037;-65
2021/12/13 04:38:21;;;;;;;27.38;9.60;;;4.60;99.90;;;;;;5017074;28;20072;-70
2021/12/13 04:40:47;;;;;;;29.70;9.68;;;4.60;99.90;;;;;;5036743;28;20025;-63
2021/12/13 04:43:16;;;;;;;26.38;9.05;;;4.60;99.90;;;;;;5027097;28;20848;-63
2021/12/13 04:45:46;;;;;;;21.15;8.18;;;4.50;99.90;;;;;;5006154;28;20088;-64
2021/12/13 04:48:18;;;;;;;21.52;8.30;;;4.50;99.90;;;;;;5010859;28;20029;-63
2021/12/13 04:50:52;;;;;;;21.10;8.27;;;4.60;99.90;;;;;;5008314;28;20030;-63
2021/12/13 04:53:23;;;;;;;22.15;8.55;;;4.60;99.90;;;;;;5010852;28;20399;-69
2021/12/13 04:55:50;;;;;;;23.60;9.48;;;4.60;99.90;;;;;;5020554;28;20025;-63
2021/12/13 04:58:17;;;;;;;25.77;9.43;;;4.60;99.90;;;;;;5023107;28;20034;-70
2021/12/13 05:00:50;;;;;;;24.60;9.02;;;4.60;99.90;;;;;;5009230;28;20482;-64
2021/12/13 05:03:19;;;;;;;22.90;8.40;;;4.60;99.90;;;;;;5004638;28;20022;-63
2021/12/13 05:05:45;;;;;;;24.73;9.27;;;4.60;99.90;;;;;;5015539;28;20045;-64
2021/12/13 05:08:15;;;;;;;21.33;8.45;;;4.60;99.90;;;;;;5019579;28;20101;-64
2021/12/13 05:10:46;;;;;;;19.45;6.15;;;4.60;99.90;;;;;;5008926;28;20701;-63
2021/12/13 05:13:16;;;;;;;20.83;7.97;;;4.60;99.90;;;;;;5018025;28;20116;-63
2021/12/13 05:15:52;;;;;;;20.27;8.07;;;4.60;99.90;;;;;;5007685;28;20041;-63
2021/12/13 05:18:22;;;;;;;36.67;9.27;;;4.60;99.90;;;;;;5006055;28;20034;-70
2021/12/13 05:20:59;;;;;;;21.33;8.02;;;4.70;99.90;;;;;;5017551;28;20037;-64
2021/12/13 05:23:28;;;;;;;22.92;8.90;;;4.70;99.90;;;;;;5006434;28;20069;-66
2021/12/13 05:26:04;;;;;;;22.45;7.88;;;4.70;99.90;;;;;;5000139;28;20041;-64
2021/12/13 05:28:42;;;;;;;23.13;8.13;;;4.70;99.90;;;;;;5008917;28;20128;-65
2021/12/13 05:31:15;;;;;;;19.15;7.60;;;4.70;99.90;;;;;;5009562;28;20064;-67
2021/12/13 05:33:42;;;;;;;20.35;7.90;;;4.70;99.90;;;;;;5007082;28;20394;-64
2021/12/13 05:36:21;;;;;;;19.48;7.35;;;4.70;99.90;;;;;;5004153;28;20092;-64
2021/12/13 05:38:50;;;;;;;18.73;7.60;;;4.70;99.90;;;;;;5006130;28;20029;-64
2021/12/13 05:41:25;;;;;;;21.88;7.65;;;4.70;99.90;;;;;;5006338;28;20026;-64
2021/12/13 05:44:07;;;;;;;21.33;7.70;;;4.70;99.90;;;;;;5002227;28;20097;-64
2021/12/13 05:46:40;;;;;;;23.42;8.20;;;4.70;99.90;;;;;;5035861;28;20558;-66
2021/12/13 05:49:18;;;;;;;19.52;7.95;;;4.70;99.90;;;;;;5006120;28;20053;-66
2021/12/13 05:51:48;;;;;;;21.15;8.25;;;4.70;99.90;;;;;;5003228;28;20042;-64
2021/12/13 05:54:30;;;;;;;19.00;7.63;;;4.70;99.90;;;;;;5005258;28;20041;-68
2021/12/13 05:56:55;;;;;;;18.27;7.70;;;4.70;99.90;;;;;;5008139;28;20030;-66
2021/12/13 05:59:30;;;;;;;22.02;8.40;;;4.80;99.90;;;;;;5022956;28;20552;-69
2021/12/13 06:02:02;;;;;;;18.83;7.22;;;4.80;99.90;;;;;;5012965;28;20048;-64
2021/12/13 06:04:36;;;;;;;17.77;6.65;;;4.70;99.90;;;;;;5031844;28;20030;-65
2021/12/13 06:07:11;;;;;;;20.33;7.80;;;4.70;99.90;;;;;;5007856;28;20021;-66
2021/12/13 06:09:40;;;;;;;20.05;8.23;;;4.80;99.90;;;;;;5005236;28;20036;-63
2021/12/13 06:12:09;;;;;;;20.17;7.60;;;4.70;99.90;;;;;;5008048;28;20053;-65
2021/12/13 06:14:36;;;;;;;20.80;7.82;;;4.70;99.90;;;;;;4995664;28;20030;-64
2021/12/13 06:17:12;;;;;;;23.45;7.53;;;4.80;99.90;;;;;;5014558;28;20021;-65
2021/12/13 06:19:59;;;;;;;18.17;7.70;;;4.80;99.90;;;;;;5021808;28;20114;-65
2021/12/13 06:22:28;;;;;;;19.02;7.40;;;4.80;99.90;;;;;;5008255;28;20040;-70
2021/12/13 06:25:02;;;;;;;19.33;8.23;;;4.80;99.90;;;;;;5002520;28;20109;-66
2021/12/13 06:27:44;;;;;;;19.50;7.55;;;4.80;99.90;;;;;;4992356;28;20141;-65
2021/12/13 06:30:12;;;;;;;20.70;7.57;;;4.80;99.90;;;;;;5009674;28;20420;-64
2021/12/13 06:32:41;;;;;;;17.38;7.18;;;4.80;99.90;;;;;;5011418;28;20113;-67
2021/12/13 06:35:28;;;;;;;20.30;7.72;;;4.80;99.90;;;;;;5006487;28;20026;-65
2021/12/13 06:37:54;;;;;;;17.75;6.93;;;4.90;99.90;;;;;;5000825;28;20034;-65
2021/12/13 06:40:27;;;;;;;19.90;7.82;;;4.90;99.90;;;;;;5006332;28;20030;-65
2021/12/13 06:42:58;;;;;;;18.42;7.65;;;4.90;99.90;;;;;;4998899;28;20045;-67
2021/12/13 06:45:31;;;;;;;16.52;6.93;;;4.90;99.90;;;;;;4998213;28;20034;-69
2021/12/13 06:47:59;;;;;;;18.73;7.05;;;4.90;99.90;;;;;;5007798;28;20026;-64
2021/12/13 06:50:32;;;;;;;16.60;6.63;;;4.90;99.90;;;;;;5004487;28;20030;-69
2021/12/13 06:53:17;;;;;;;15.68;6.30;;;4.90;99.90;;;;;;5007464;28;20042;-64
2021/12/13 06:55:45;;;;;;;17.45;6.60;;;4.90;99.90;;;;;;5036252;28;20616;-66
2021/12/13 06:58:24;;;;;;;15.63;6.65;;;4.90;99.90;;;;;;5005947;28;20057;-69
2021/12/13 07:00:55;;;;;;;17.10;6.47;;;4.90;99.90;;;;;;5008097;28;20034;-65
2021/12/13 07:03:26;;;;;;;14.38;5.85;;;4.90;99.90;;;;;;5008017;28;20470;-65
2021/12/13 07:05:57;;;;;;;12.88;5.28;;;4.90;99.90;;;;;;5010242;28;20497;-65
2021/12/13 07:08:26;;;;;;;;;;;5.00;99.90;;;;;;5010632;28;20045;-70
2021/12/13 07:10:51;;;;;;;13.10;5.65;;;5.00;99.90;;;;;;4994750;28;19916;-68
2021/12/13 07:13:31;;;;;;;13.70;6.03;;;5.00;99.90;;;;;;5010026;28;20050;-63
2021/12/13 07:16:03;;;;;;;11.70;5.20;;;4.90;99.90;;;;;;5008132;28;20034;-65
2021/12/13 07:18:49;;;;;;;10.05;4.45;;;4.90;99.90;;;;;;4997496;28;20026;-71
2021/12/13 07:21:23;;;;;;;11.85;5.03;;;5.00;99.90;;;;;;5002504;28;20037;-67
2021/12/13 07:24:09;;;;;;;12.35;5.00;;;5.00;99.90;;;;;;5007409;28;20038;-67
2021/12/13 07:27:04;;;;;;;12.68;5.35;;;5.00;99.90;;;;;;5019820;28;20052;-67
2021/12/13 07:29:48;;;;;;;11.60;4.68;;;5.00;99.90;;;;;;5019153;28;20041;-67
2021/12/13 07:32:36;;;;;;;11.77;4.93;;;5.00;99.90;;;;;;5015917;28;20069;-71
2021/12/13 07:35:13;;;;;;;16.98;6.05;;;5.10;99.90;;;;;;5027453;28;20025;-65
2021/12/13 07:37:41;;;;;;;16.30;6.38;;;5.10;99.90;;;;;;5016770;28;20038;-65
2021/12/13 07:40:43;;;;;;;18.05;6.15;;;5.10;99.90;;;;;;5029402;28;20025;-68
2021/12/13 07:43:17;;;;;;;14.25;5.63;;;5.10;99.90;;;;;;5011397;28;20025;-67
2021/12/13 07:45:47;;;;;;;14.13;5.95;;;5.10;99.90;;;;;;5025525;28;20053;-65
2021/12/13 07:48:29;;;;;;;18.25;7.20;;;5.20;99.90;;;;;;5027996;28;20029;-64
2021/12/13 07:51:04;;;;;;;16.80;6.47;;;5.20;99.90;;;;;;5029609;28;20029;-65
2021/12/13 07:53:45;;;;;;;307.10;12.10;;;5.20;99.90;;;;;;5026437;28;20039;-68
2021/12/13 07:56:29;;;;;;;245.40;11.68;;;5.10;99.90;;;;;;5020774;28;20037;-67
2021/12/13 07:59:20;;;;;;;156.88;8.93;;;5.10;99.90;;;;;;5016061;28;20092;-68
2021/12/13 08:01:58;;;;;;;;;;;5.10;99.90;;;;;;5004337;28;20125;-69
2021/12/13 08:04:33;;;;;;;32.15;7.20;;;5.20;99.90;;;;;;5005997;28;19920;-69
2021/12/13 08:07:11;;;;;;;250.63;13.30;;;5.20;99.90;;;;;;5008350;28;20033;-72
2021/12/13 08:09:52;;;;;;;29.27;7.13;;;5.20;99.90;;;;;;5002455;28;20025;-69
2021/12/13 08:12:28;;;;;;;18.08;8.02;;;5.20;99.90;;;;;;5014571;28;20450;-70
2021/12/13 08:15:07;;;;;;;18.90;7.30;;;5.30;99.90;;;;;;4999063;28;20108;-69
2021/12/13 08:17:41;;;;;;;21.38;7.60;;;5.30;99.90;;;;;;5007634;28;20770;-69
2021/12/13 08:20:11;;;;;;;20.13;7.47;;;5.40;99.90;;;;;;5014390;28;20028;-69
2021/12/13 08:22:46;;;;;;;18.67;7.50;;;5.40;99.90;;;;;;5011266;28;20025;-69
2021/12/13 08:25:20;;;;;;;22.52;8.57;;;5.40;99.90;;;;;;5007858;28;20026;-68
2021/12/13 08:27:58;;;;;;;24.77;8.93;;;5.40;99.90;;;;;;5005590;28;20054;-71
2021/12/13 08:30:35;;;;;;;24.05;8.90;;;5.50;99.90;;;;;;5020007;28;20393;-70
2021/12/13 08:33:13;;;;;;;22.52;8.32;;;5.50;99.90;;;;;;5024306;28;20045;-70
2021/12/13 08:36:09;;;;;;;23.58;9.57;;;5.60;99.90;;;;;;5020551;28;20041;-71
2021/12/13 08:39:00;;;;;;;29.58;10.68;;;5.60;99.90;;;;;;5005927;28;20064;-70
2021/12/13 08:41:33;;;;;;;95.18;11.00;;;5.60;99.90;;;;;;5014923;28;20505;-69
2021/12/13 08:44:11;;;;;;;72.75;10.80;;;5.60;99.90;;;;;;5010109;28;20038;-72
2021/12/13 08:46:55;;;;;;;195.57;14.13;;;5.70;99.90;;;;;;5013849;28;20112;-70
2021/12/13 08:49:27;;;;;;;62.45;10.05;;;5.70;99.90;;;;;;5012770;28;20038;-70
2021/12/13 08:51:59;;;;;;;19.15;7.25;;;5.70;99.90;;;;;;5022020;28;20052;-71
2021/12/13 08:54:37;;;;;;;16.38;7.15;;;5.70;99.90;;;;;;5028555;28;20355;-70
2021/12/13 08:57:04;;;;;;;18.25;7.68;;;5.70;99.90;;;;;;5013596;28;20033;-69
2021/12/13 08:59:30;;;;;;;19.30;7.38;;;5.80;99.90;;;;;;5020652;28;20757;-74
2021/12/13 09:02:08;;;;;;;16.05;6.97;;;5.80;99.90;;;;;;5020728;28;20071;-72
2021/12/13 09:04:39;;;;;;;16.00;6.45;;;5.90;99.90;;;;;;5009701;28;20034;-73
2021/12/13 09:07:11;;;;;;;11.80;5.45;;;5.90;99.90;;;;;;5010039;28;20034;-72
2021/12/13 09:09:43;;;;;;;10.95;5.45;;;6.00;99.90;;;;;;5009391;28;20022;-77
2021/12/13 09:12:10;;;;;;;15.82;5.80;;;6.10;99.90;;;;;;5007639;28;20505;-71
2021/12/13 09:14:50;;;;;;;13.55;4.93;;;6.10;99.90;;;;;;5018023;28;20025;-70
2021/12/13 09:17:25;;;;;;;9.30;3.95;;;6.10;99.90;;;;;;5024982;28;20037;-70
2021/12/13 09:20:06;;;;;;;9.98;3.97;;;6.10;99.90;;;;;;5023360;28;20046;-69
2021/12/13 09:22:39;;;;;;;9.60;3.85;;;6.20;99.90;;;;;;5015858;28;20041;-74
2021/12/13 09:25:16;;;;;;;8.98;3.83;;;6.30;99.90;;;;;;5022724;28;20033;-70
2021/12/13 09:27:54;;;;;;;8.65;3.83;;;6.30;99.90;;;;;;5012686;28;20069;-70
2021/12/13 09:30:48;;;;;;;20.75;4.20;;;6.30;99.90;;;;;;5015694;28;20069;-69
2021/12/13 09:33:33;;;;;;;9.20;3.85;;;6.40;99.90;;;;;;5020710;28;20064;-71
2021/12/13 09:36:09;;;;;;;13.73;4.18;;;6.40;99.90;;;;;;5021111;28;20044;-72
2021/12/13 09:38:50;;;;;;;11.40;4.70;;;6.40;99.90;;;;;;5021948;28;20655;-76
2021/12/13 09:41:16;;;;;;;;;;;6.40;99.90;;;;;;5027647;28;20088;-71
2021/12/13 09:43:52;;;;;;;8.43;3.15;;;6.50;99.90;;;;;;5008201;28;19913;-70
2021/12/13 09:46:39;;;;;;;8.98;3.03;;;6.40;99.90;;;;;;5024617;28;20036;-69
2021/12/13 09:49:14;;;;;;;7.55;2.95;;;6.40;99.90;;;;;;5002397;28;20108;-72
2021/12/13 09:51:47;;;;;;;5.75;2.60;;;6.30;99.90;;;;;;5005155;28;20501;-71
2021/12/13 09:54:17;;;;;;;6.00;2.22;;;6.40;99.90;;;;;;5007785;28;20037;-74
2021/12/13 09:56:49;;;;;;;7.22;2.20;;;6.40;99.90;;;;;;5007708;28;20022;-71
2021/12/13 09:59:24;;;;;;;7.53;3.20;;;6.50;99.90;;;;;;5013681;28;20413;-69
2021/12/13 10:01:51;;;;;;;6.70;2.80;;;6.50;99.90;;;;;;5020446;28;20026;-71
2021/12/13 10:04:29;;;;;;;6.80;3.28;;;6.60;99.90;;;;;;5001225;28;20026;-71
2021/12/13 10:07:04;;;;;;;6.60;3.10;;;6.50;99.90;;;;;;5021197;28;20032;-71
2021/12/13 10:09:45;;;;;;;8.02;3.13;;;6.60;99.90;;;;;;5024664;28;20030;-71
2021/12/13 10:12:35;;;;;;;8.48;3.13;;;6.60;99.90;;;;;;5011871;28;20042;-71
2021/12/13 10:15:19;;;;;;;9.82;3.15;;;6.60;99.90;;;;;;5019336;28;20536;-70
2021/12/13 10:17:48;;;;;;;8.65;3.75;;;6.50;99.90;;;;;;5007514;28;20038;-71
2021/12/13 10:20:34;;;;;;;7.80;3.92;;;6.40;99.90;;;;;;5011597;28;20034;-71
2021/12/13 10:23:01;;;;;;;7.57;3.42;;;6.40;99.90;;;;;;5019301;28;20056;-70
2021/12/13 10:25:31;;;;;;;10.30;4.55;;;6.30;99.90;;;;;;5021222;28;20120;-68
2021/12/13 10:27:58;;;;;;;9.88;5.00;;;6.30;99.90;;;;;;5014231;28;20041;-72
2021/12/13 10:30:37;;;;;;;9.48;4.65;;;6.30;99.90;;;;;;5012253;28;20105;-70
2021/12/13 10:33:05;;;;;;;10.32;4.60;;;6.30;99.90;;;;;;5003941;28;20128;-70
2021/12/13 10:35:34;;;;;;;13.63;6.28;;;6.40;99.90;;;;;;5033057;28;20049;-69
2021/12/13 10:38:18;;;;;;;12.50;5.75;;;6.50;99.90;;;;;;5023845;28;20061;-69
2021/12/13 10:40:51;;;;;;;11.85;5.03;;;6.50;99.90;;;;;;5024876;28;20079;-70
2021/12/13 10:43:25;;;;;;;9.88;4.43;;;6.50;99.90;;;;;;5015627;28;20033;-69
2021/12/13 10:45:57;;;;;;;11.73;4.28;;;6.60;99.90;;;;;;5029583;28;20068;-68
2021/12/13 10:48:30;;;;;;;8.50;3.58;;;6.60;99.90;;;;;;5024268;28;20046;-70
2021/12/13 10:51:06;;;;;;;7.55;3.83;;;6.60;99.90;;;;;;5021081;28;20471;-72
2021/12/13 10:53:33;;;;;;;8.70;4.32;;;6.50;99.90;;;;;;5019751;28;20048;-70
2021/12/13 10:56:07;;;;;;;8.88;4.05;;;6.50;99.90;;;;;;5010222;28;20056;-72
2021/12/13 10:58:37;;;;;;;8.75;4.03;;;6.50;99.90;;;;;;5022182;28;20038;-70
2021/12/13 11:01:20;;;;;;;7.25;3.65;;;6.60;99.90;;;;;;5021125;28;20032;-72
2021/12/13 11:03:48;;;;;;;9.63;4.15;;;6.60;99.90;;;;;;5032623;28;20120;-74
2021/12/13 11:06:16;;;;;;;13.80;4.85;;;6.50;99.90;;;;;;5032518;28;20041;-69
2021/12/13 11:08:42;;;;;;;9.98;4.75;;;6.50;99.90;;;;;;5032729;28;20026;-75
2021/12/13 11:11:28;;;;;;;7.05;3.80;;;6.50;99.90;;;;;;5008443;28;20030;-70
2021/12/13 11:14:00;;;;;;;8.88;4.20;;;6.50;99.90;;;;;;5000370;28;20065;-74
2021/12/13 11:16:36;;;;;;;8.85;4.53;;;6.60;99.90;;;;;;5014584;28;20466;-72
2021/12/13 11:19:04;;;;;;;12.60;5.10;;;6.60;99.90;;;;;;5017886;28;20032;-70
2021/12/13 11:21:35;;;;;;;14.05;5.07;;;6.70;99.90;;;;;;5013009;28;20070;-71
2021/12/13 11:24:02;;;;;;;9.82;4.90;;;6.80;99.90;;;;;;5031422;28;20598;-70
2021/12/13 11:26:39;;;;;;;10.80;5.38;;;6.70;99.90;;;;;;5021527;28;20053;-70
2021/12/13 11:29:11;;;;;;;13.93;6.00;;;6.80;99.90;;;;;;5025483;28;20176;-69
2021/12/13 11:32:13;;;;;;;14.77;6.63;;;6.80;99.90;;;;;;5033888;28;20076;-68
2021/12/13 11:35:07;;;;;;;17.05;6.20;;;6.90;99.90;;;;;;5026383;28;20056;-74
2021/12/13 11:37:56;;;;;;;14.07;5.95;;;6.90;99.90;;;;;;5020513;28;20029;-67
2021/12/13 11:40:31;;;;;;;14.85;6.30;;;6.90;99.90;;;;;;5003088;28;20040;-69
2021/12/13 11:43:26;;;;;;;13.68;6.25;;;6.90;99.90;;;;;;4992466;28;20072;-67
2021/12/13 11:46:26;;;;;;;13.95;6.50;;;6.90;99.90;;;;;;5005418;28;20026;-67
2021/12/13 11:49:14;;;;;;;11.32;5.78;;;6.80;99.90;;;;;;5019299;28;20080;-67
2021/12/13 11:52:11;;;;;;;11.25;5.18;;;6.90;99.90;;;;;;5006596;28;20096;-69
2021/12/13 11:55:21;;;;;;;9.50;4.82;;;6.90;99.90;;;;;;5013474;28;20118;-66
2021/12/13 11:58:02;;;;;;;10.98;4.40;;;7.00;99.90;;;;;;5005887;28;20132;-67
2021/12/13 12:00:43;;;;;;;9.13;4.28;;;7.00;99.90;;;;;;5015311;28;20034;-70
2021/12/13 12:03:27;;;;;;;7.93;3.90;;;7.00;99.90;;;;;;5009337;28;20064;-68
2021/12/13 12:05:53;;;;;;;8.70;4.13;;;7.00;99.90;;;;;;5012918;28;20034;-69
2021/12/13 12:08:47;;;;;;;8.70;4.22;;;7.10;99.90;;;;;;5004203;28;20037;-70
2021/12/13 12:11:46;;;;;;;8.07;3.65;;;7.10;99.90;;;;;;5019487;28;20021;-69
2021/12/13 12:14:12;;;;;;;8.60;3.90;;;7.20;99.90;;;;;;5011277;28;20048;-65
2021/12/13 12:16:48;;;;;;;10.38;4.20;;;7.20;99.90;;;;;;5011088;28;20036;-67
2021/12/13 12:19:24;;;;;;;8.95;4.53;;;7.20;99.90;;;;;;5014492;28;20650;-67
2021/12/13 12:22:15;;;;;;;9.32;3.75;;;7.20;99.90;;;;;;5010553;28;20533;-66
2021/12/13 12:24:48;;;;;;;9.52;4.68;;;7.20;99.90;;;;;;5021150;28;20030;-65
2021/12/13 12:27:26;;;;;;;9.63;4.50;;;7.30;99.90;;;;;;5019423;28;21549;-65
2021/12/13 12:29:56;;;;;;;10.90;5.15;;;7.30;99.90;;;;;;5015001;28;20034;-65
2021/12/13 12:32:28;;;;;;;10.52;4.65;;;7.30;99.90;;;;;;5018120;28;20038;-71
2021/12/13 12:35:01;;;;;;;9.65;4.70;;;7.30;99.90;;;;;;4997256;28;20039;-67
2021/12/13 12:37:34;;;;;;;10.48;4.78;;;7.30;99.90;;;;;;5024768;28;20489;-65
2021/12/13 12:40:08;;;;;;;11.65;3.88;;;7.30;99.90;;;;;;5016019;28;20441;-66
2021/12/13 12:42:44;;;;;;;10.23;4.78;;;7.30;99.90;;;;;;5016679;28;20096;-66
2021/12/13 12:45:19;;;;;;;10.65;4.78;;;7.30;99.90;;;;;;5024959;28;20029;-66
2021/12/13 12:47:51;;;;;;;10.13;4.70;;;7.40;99.90;;;;;;5024042;28;20029;-72
2021/12/13 12:50:28;;;;;;;9.73;4.70;;;7.40;99.90;;;;;;5017605;28;20100;-66
2021/12/13 12:53:00;;;;;;;11.35;4.43;;;7.50;99.90;;;;;;5008797;28;20037;-71
2021/12/13 12:55:53;;;;;;;8.85;4.15;;;7.40;99.90;;;;;;5014078;28;20113;-65
2021/12/13 12:58:23;;;;;;;8.90;4.15;;;7.30;99.90;;;;;;5017765;28;20061;-66
2021/12/13 13:00:51;;;;;;;7.57;3.30;;;7.30;99.90;;;;;;5015447;28;20033;-71
2021/12/13 13:03:30;;;;;;;10.00;4.10;;;7.30;99.90;;;;;;5009073;28;20034;-67
2021/12/13 13:06:09;;;;;;;8.55;4.05;;;7.50;99.90;;;;;;5010492;28;20034;-67
2021/12/13 13:08:39;;;;;;;11.30;6.15;;;7.50;99.90;;;;;;5036910;28;20548;-65
2021/12/13 13:11:26;;;;;;;7.75;3.90;;;7.60;99.90;;;;;;5020401;28;20041;-68
2021/12/13 13:14:12;;;;;;;7.97;3.80;;;7.60;99.90;;;;;;5019838;28;20368;-64
2021/12/13 13:16:47;;;;;;;7.88;3.95;;;7.70;99.90;;;;;;5019621;28;20041;-68
2021/12/13 13:19:40;;;;;;;9.30;3.90;;;7.70;99.90;;;;;;5022912;28;20030;-68
2021/12/13 13:22:10;;;;;;;9.18;4.22;;;7.70;99.90;;;;;;5021869;28;20038;-69
2021/12/13 13:24:46;;;;;;;15.82;5.95;;;7.70;99.90;;;;;;5009897;28;20040;-68
2021/12/13 13:27:13;;;;;;;10.70;5.30;;;7.70;99.90;;;;;;5019581;28;20061;-68
2021/12/13 13:29:39;;;;;;;9.65;4.88;;;7.70;99.90;;;;;;5010400;28;20379;-69
2021/12/13 13:32:09;;;;;;;10.38;5.10;;;7.60;99.90;;;;;;5016948;28;20153;-67
2021/12/13 13:34:41;;;;;;;10.68;4.95;;;7.60;99.90;;;;;;5023550;28;20033;-66
2021/12/13 13:37:15;;;;;;;10.25;5.15;;;7.50;99.90;;;;;;5016592;28;20041;-65